sensor_id;sensor_type;location;lat;lon;timestamp;pressure;altitude;pressure_sealevel;temperature;humidity
74163;BME280;62515;52.758;5.076;2024-03-07T00:02:22;102773.38;;;6.96;nan
74163;BME280;62515;52.758;5.076;2024-03-07T00:04:49;102772.63;;;6.91;nan
74163;BME280;62515;52.758;5.076;2024-03-07T00:07:17;102777.81;;;6.94;nan
74163;BME280;62515;52.758;5.076;2024-03-07T00:09:44;102775.31;;;6.89;nan
74163;BME280;62515;52.758;5.076;2024-03-07T00:12:12;102774.38;;;6.92;nan
74163;BME280;62515;52.758;5.076;2024-03-07T00:14:41;102772.25;;;7.04;nan
74163;BME280;62515;52.758;5.076;2024-03-07T00:17:08;102777.72;;;6.98;nan
74163;BME280;62515;52.758;5.076;2024-03-07T00:19:36;102775.19;;;6.94;nan
74163;BME280;62515;52.758;5.076;2024-03-07T00:22:03;102775.34;;;6.88;nan
74163;BME280;62515;52.758;5.076;2024-03-07T00:24:33;102779.41;;;7.01;nan
74163;BME280;62515;52.758;5.076;2024-03-07T00:27:01;102780.00;;;6.78;nan
74163;BME280;62515;52.758;5.076;2024-03-07T00:29:28;102782.91;;;6.67;nan
74163;BME280;62515;52.758;5.076;2024-03-07T00:31:57;102779.38;;;6.67;nan
74163;BME280;62515;52.758;5.076;2024-03-07T00:34:24;102794.03;;;6.81;nan
74163;BME280;62515;52.758;5.076;2024-03-07T00:36:53;102779.03;;;6.80;nan
74163;BME280;62515;52.758;5.076;2024-03-07T00:39:20;102792.19;;;6.83;nan
74163;BME280;62515;52.758;5.076;2024-03-07T00:41:47;102779.13;;;6.77;nan
74163;BME280;62515;52.758;5.076;2024-03-07T00:44:15;102785.28;;;6.79;nan
74163;BME280;62515;52.758;5.076;2024-03-07T00:46:42;102780.63;;;6.89;nan
74163;BME280;62515;52.758;5.076;2024-03-07T00:49:11;102782.16;;;6.96;nan
74163;BME280;62515;52.758;5.076;2024-03-07T00:51:39;102773.44;;;6.93;nan
74163;BME280;62515;52.758;5.076;2024-03-07T00:54:06;102771.75;;;6.90;nan
74163;BME280;62515;52.758;5.076;2024-03-07T00:56:34;102778.22;;;6.78;nan
74163;BME280;62515;52.758;5.076;2024-03-07T00:59:01;102773.66;;;6.83;nan
74163;BME280;62515;52.758;5.076;2024-03-07T01:01:28;102778.31;;;6.75;nan
74163;BME280;62515;52.758;5.076;2024-03-07T01:03:56;102774.00;;;6.71;nan
74163;BME280;62515;52.758;5.076;2024-03-07T01:06:25;102776.63;;;6.71;nan
74163;BME280;62515;52.758;5.076;2024-03-07T01:08:52;102774.97;;;6.67;nan
74163;BME280;62515;52.758;5.076;2024-03-07T01:11:20;102770.63;;;6.65;nan
74163;BME280;62515;52.758;5.076;2024-03-07T01:13:47;102775.75;;;6.72;nan
74163;BME280;62515;52.758;5.076;2024-03-07T01:16:14;102779.97;;;6.79;nan
74163;BME280;62515;52.758;5.076;2024-03-07T01:18:42;102769.44;;;6.76;nan
74163;BME280;62515;52.758;5.076;2024-03-07T01:21:09;102766.66;;;6.82;nan
74163;BME280;62515;52.758;5.076;2024-03-07T01:23:38;102764.84;;;6.84;nan
74163;BME280;62515;52.758;5.076;2024-03-07T01:26:06;102773.56;;;6.88;nan
74163;BME280;62515;52.758;5.076;2024-03-07T01:28:33;102772.53;;;6.94;nan
74163;BME280;62515;52.758;5.076;2024-03-07T01:31:01;102772.28;;;7.35;nan
74163;BME280;62515;52.758;5.076;2024-03-07T01:33:28;102771.81;;;7.21;nan
74163;BME280;62515;52.758;5.076;2024-03-07T01:35:55;102768.50;;;7.13;nan
74163;BME280;62515;52.758;5.076;2024-03-07T01:38:23;102765.19;;;7.05;nan
74163;BME280;62515;52.758;5.076;2024-03-07T01:40:52;102756.56;;;6.97;nan
74163;BME280;62515;52.758;5.076;2024-03-07T01:43:19;102767.94;;;7.00;nan
74163;BME280;62515;52.758;5.076;2024-03-07T01:45:47;102760.38;;;6.87;nan
74163;BME280;62515;52.758;5.076;2024-03-07T01:48:20;102759.34;;;6.92;nan
74163;BME280;62515;52.758;5.076;2024-03-07T01:50:52;102757.22;;;6.72;nan
74163;BME280;62515;52.758;5.076;2024-03-07T01:53:20;102763.78;;;6.92;nan
74163;BME280;62515;52.758;5.076;2024-03-07T01:55:48;102759.47;;;6.88;nan
74163;BME280;62515;52.758;5.076;2024-03-07T01:58:18;102760.44;;;6.83;nan
74163;BME280;62515;52.758;5.076;2024-03-07T02:00:46;102762.19;;;6.84;nan
74163;BME280;62515;52.758;5.076;2024-03-07T02:03:13;102763.38;;;6.73;nan
74163;BME280;62515;52.758;5.076;2024-03-07T02:05:41;102756.09;;;6.81;nan
74163;BME280;62515;52.758;5.076;2024-03-07T02:08:09;102758.75;;;6.81;nan
74163;BME280;62515;52.758;5.076;2024-03-07T02:10:36;102759.19;;;6.98;nan
74163;BME280;62515;52.758;5.076;2024-03-07T02:13:04;102754.78;;;6.99;nan
74163;BME280;62515;52.758;5.076;2024-03-07T02:15:33;102756.91;;;6.84;nan
74163;BME280;62515;52.758;5.076;2024-03-07T02:18:00;102758.44;;;6.59;nan
74163;BME280;62515;52.758;5.076;2024-03-07T02:20:28;102753.25;;;6.55;nan
74163;BME280;62515;52.758;5.076;2024-03-07T02:22:57;102754.34;;;6.46;nan
74163;BME280;62515;52.758;5.076;2024-03-07T02:25:24;102763.16;;;6.45;nan
74163;BME280;62515;52.758;5.076;2024-03-07T02:27:52;102749.94;;;6.47;nan
74163;BME280;62515;52.758;5.076;2024-03-07T02:30:19;102748.97;;;6.49;nan
74163;BME280;62515;52.758;5.076;2024-03-07T02:32:47;102748.81;;;6.55;nan
74163;BME280;62515;52.758;5.076;2024-03-07T02:35:14;102742.97;;;6.76;nan
74163;BME280;62515;52.758;5.076;2024-03-07T02:37:42;102737.69;;;6.76;nan
74163;BME280;62515;52.758;5.076;2024-03-07T02:40:11;102738.56;;;6.77;nan
74163;BME280;62515;52.758;5.076;2024-03-07T02:42:39;102743.47;;;6.57;nan
74163;BME280;62515;52.758;5.076;2024-03-07T02:45:07;102736.41;;;6.59;nan
74163;BME280;62515;52.758;5.076;2024-03-07T02:47:35;102737.28;;;6.58;nan
74163;BME280;62515;52.758;5.076;2024-03-07T02:50:02;102743.72;;;6.48;nan
74163;BME280;62515;52.758;5.076;2024-03-07T02:52:30;102736.50;;;6.54;nan
74163;BME280;62515;52.758;5.076;2024-03-07T02:54:57;102731.91;;;6.61;nan
74163;BME280;62515;52.758;5.076;2024-03-07T02:57:26;102733.50;;;6.68;nan
74163;BME280;62515;52.758;5.076;2024-03-07T02:59:53;102732.78;;;6.61;nan
74163;BME280;62515;52.758;5.076;2024-03-07T03:02:21;102727.44;;;6.64;nan
74163;BME280;62515;52.758;5.076;2024-03-07T03:04:48;102725.69;;;6.63;nan
74163;BME280;62515;52.758;5.076;2024-03-07T03:07:16;102723.28;;;6.54;nan
74163;BME280;62515;52.758;5.076;2024-03-07T03:09:43;102720.38;;;6.63;nan
74163;BME280;62515;52.758;5.076;2024-03-07T03:12:11;102721.06;;;6.71;nan
74163;BME280;62515;52.758;5.076;2024-03-07T03:14:40;102717.94;;;6.56;nan
74163;BME280;62515;52.758;5.076;2024-03-07T03:17:07;102720.78;;;6.48;nan
74163;BME280;62515;52.758;5.076;2024-03-07T03:19:34;102719.97;;;6.46;nan
74163;BME280;62515;52.758;5.076;2024-03-07T03:22:02;102721.63;;;6.50;nan
74163;BME280;62515;52.758;5.076;2024-03-07T03:24:29;102713.25;;;6.67;nan
74163;BME280;62515;52.758;5.076;2024-03-07T03:26:57;102718.44;;;6.71;nan
74163;BME280;62515;52.758;5.076;2024-03-07T03:29:24;102713.59;;;6.87;nan
74163;BME280;62515;52.758;5.076;2024-03-07T03:31:54;102718.44;;;7.04;nan
74163;BME280;62515;52.758;5.076;2024-03-07T03:34:21;102722.50;;;7.17;nan
74163;BME280;62515;52.758;5.076;2024-03-07T03:36:48;102721.88;;;7.07;nan
74163;BME280;62515;52.758;5.076;2024-03-07T03:39:16;102720.66;;;7.19;nan
74163;BME280;62515;52.758;5.076;2024-03-07T03:41:43;102722.28;;;7.24;nan
74163;BME280;62515;52.758;5.076;2024-03-07T03:44:11;102723.97;;;7.27;nan
74163;BME280;62515;52.758;5.076;2024-03-07T03:46:38;102715.47;;;7.16;nan
74163;BME280;62515;52.758;5.076;2024-03-07T03:49:07;102716.06;;;7.25;nan
74163;BME280;62515;52.758;5.076;2024-03-07T03:51:35;102709.94;;;7.25;nan
74163;BME280;62515;52.758;5.076;2024-03-07T03:54:02;102715.38;;;7.19;nan
74163;BME280;62515;52.758;5.076;2024-03-07T03:56:29;102726.53;;;7.30;nan
74163;BME280;62515;52.758;5.076;2024-03-07T03:58:57;102729.53;;;7.18;nan
74163;BME280;62515;52.758;5.076;2024-03-07T04:01:24;102726.03;;;7.16;nan
74163;BME280;62515;52.758;5.076;2024-03-07T04:03:52;102722.59;;;7.14;nan
74163;BME280;62515;52.758;5.076;2024-03-07T04:06:21;102703.47;;;7.03;nan
74163;BME280;62515;52.758;5.076;2024-03-07T04:08:48;102726.84;;;7.19;nan
74163;BME280;62515;52.758;5.076;2024-03-07T04:11:16;102726.97;;;7.15;nan
74163;BME280;62515;52.758;5.076;2024-03-07T04:13:45;102723.00;;;7.31;nan
74163;BME280;62515;52.758;5.076;2024-03-07T04:16:12;102722.50;;;7.17;nan
74163;BME280;62515;52.758;5.076;2024-03-07T04:18:41;102725.88;;;7.22;nan
74163;BME280;62515;52.758;5.076;2024-03-07T04:21:09;102723.66;;;7.07;nan
74163;BME280;62515;52.758;5.076;2024-03-07T04:23:40;102729.41;;;7.22;nan
74163;BME280;62515;52.758;5.076;2024-03-07T04:26:07;102723.53;;;7.11;nan
74163;BME280;62515;52.758;5.076;2024-03-07T04:28:35;102720.75;;;7.16;nan
74163;BME280;62515;52.758;5.076;2024-03-07T04:31:02;102719.13;;;7.12;nan
74163;BME280;62515;52.758;5.076;2024-03-07T04:33:30;102724.28;;;7.16;nan
74163;BME280;62515;52.758;5.076;2024-03-07T04:35:57;102719.13;;;7.12;nan
74163;BME280;62515;52.758;5.076;2024-03-07T04:38:24;102727.28;;;7.03;nan
74163;BME280;62515;52.758;5.076;2024-03-07T04:40:53;102721.06;;;7.05;nan
74163;BME280;62515;52.758;5.076;2024-03-07T04:43:21;102724.09;;;6.90;nan
74163;BME280;62515;52.758;5.076;2024-03-07T04:45:48;102721.19;;;6.99;nan
74163;BME280;62515;52.758;5.076;2024-03-07T04:48:16;102721.69;;;6.82;nan
74163;BME280;62515;52.758;5.076;2024-03-07T04:50:43;102713.88;;;6.76;nan
74163;BME280;62515;52.758;5.076;2024-03-07T04:53:11;102714.88;;;6.72;nan
74163;BME280;62515;52.758;5.076;2024-03-07T04:55:38;102715.09;;;6.63;nan
74163;BME280;62515;52.758;5.076;2024-03-07T04:58:07;102723.81;;;6.68;nan
74163;BME280;62515;52.758;5.076;2024-03-07T05:00:34;102716.84;;;6.64;nan
74163;BME280;62515;52.758;5.076;2024-03-07T05:03:02;102723.47;;;6.47;nan
74163;BME280;62515;52.758;5.076;2024-03-07T05:05:30;102718.91;;;6.53;nan
74163;BME280;62515;52.758;5.076;2024-03-07T05:07:57;102716.53;;;6.41;nan
74163;BME280;62515;52.758;5.076;2024-03-07T05:10:24;102719.34;;;6.35;nan
74163;BME280;62515;52.758;5.076;2024-03-07T05:12:52;102716.59;;;6.40;nan
74163;BME280;62515;52.758;5.076;2024-03-07T05:15:21;102719.19;;;6.41;nan
74163;BME280;62515;52.758;5.076;2024-03-07T05:17:49;102720.53;;;6.23;nan
74163;BME280;62515;52.758;5.076;2024-03-07T05:20:16;102723.34;;;6.16;nan
74163;BME280;62515;52.758;5.076;2024-03-07T05:22:44;102720.84;;;6.10;nan
74163;BME280;62515;52.758;5.076;2024-03-07T05:25:12;102720.13;;;6.02;nan
74163;BME280;62515;52.758;5.076;2024-03-07T05:27:39;102721.72;;;6.09;nan
74163;BME280;62515;52.758;5.076;2024-03-07T05:30:08;102718.25;;;6.07;nan
74163;BME280;62515;52.758;5.076;2024-03-07T05:32:39;102710.22;;;6.11;nan
74163;BME280;62515;52.758;5.076;2024-03-07T05:35:07;102714.66;;;6.11;nan
74163;BME280;62515;52.758;5.076;2024-03-07T05:37:35;102721.88;;;6.03;nan
74163;BME280;62515;52.758;5.076;2024-03-07T05:40:02;102724.38;;;6.09;nan
74163;BME280;62515;52.758;5.076;2024-03-07T05:42:30;102729.00;;;5.99;nan
74163;BME280;62515;52.758;5.076;2024-03-07T05:44:57;102728.53;;;6.20;nan
74163;BME280;62515;52.758;5.076;2024-03-07T05:47:25;102727.97;;;6.06;nan
74163;BME280;62515;52.758;5.076;2024-03-07T05:49:53;102721.44;;;6.92;nan
74163;BME280;62515;52.758;5.076;2024-03-07T05:52:21;102726.38;;;6.70;nan
74163;BME280;62515;52.758;5.076;2024-03-07T05:54:48;102723.97;;;6.61;nan
74163;BME280;62515;52.758;5.076;2024-03-07T05:57:16;102723.38;;;6.85;nan
74163;BME280;62515;52.758;5.076;2024-03-07T05:59:43;102727.16;;;6.75;nan
74163;BME280;62515;52.758;5.076;2024-03-07T06:02:10;102726.34;;;6.73;nan
74163;BME280;62515;52.758;5.076;2024-03-07T06:04:38;102718.19;;;6.80;nan
74163;BME280;62515;52.758;5.076;2024-03-07T06:07:07;102722.41;;;6.88;nan
74163;BME280;62515;52.758;5.076;2024-03-07T06:09:34;102728.84;;;6.77;nan
74163;BME280;62515;52.758;5.076;2024-03-07T06:12:02;102729.09;;;6.68;nan
74163;BME280;62515;52.758;5.076;2024-03-07T06:14:36;102727.34;;;6.67;nan
74163;BME280;62515;52.758;5.076;2024-03-07T06:17:04;102730.00;;;6.67;nan
74163;BME280;62515;52.758;5.076;2024-03-07T06:19:31;102741.75;;;6.19;nan
74163;BME280;62515;52.758;5.076;2024-03-07T06:21:58;102737.53;;;6.47;nan
74163;BME280;62515;52.758;5.076;2024-03-07T06:24:27;102740.81;;;6.58;nan
74163;BME280;62515;52.758;5.076;2024-03-07T06:26:55;102743.31;;;6.27;nan
74163;BME280;62515;52.758;5.076;2024-03-07T06:29:25;102737.94;;;6.67;nan
74163;BME280;62515;52.758;5.076;2024-03-07T06:31:54;102743.69;;;6.49;nan
74163;BME280;62515;52.758;5.076;2024-03-07T06:34:22;102739.91;;;6.59;nan
74163;BME280;62515;52.758;5.076;2024-03-07T06:36:50;102743.91;;;6.75;nan
74163;BME280;62515;52.758;5.076;2024-03-07T06:39:17;102742.13;;;6.76;nan
74163;BME280;62515;52.758;5.076;2024-03-07T06:41:47;102745.44;;;6.50;nan
74163;BME280;62515;52.758;5.076;2024-03-07T06:44:14;102744.56;;;6.83;nan
74163;BME280;62515;52.758;5.076;2024-03-07T06:50:30;102744.47;;;6.87;nan
74163;BME280;62515;52.758;5.076;2024-03-07T06:53:04;102737.34;;;6.90;nan
74163;BME280;62515;52.758;5.076;2024-03-07T06:55:31;102746.63;;;6.72;nan
74163;BME280;62515;52.758;5.076;2024-03-07T06:58:10;102751.19;;;7.00;nan
74163;BME280;62515;52.758;5.076;2024-03-07T07:00:37;102742.97;;;7.10;nan
74163;BME280;62515;52.758;5.076;2024-03-07T07:03:07;102744.25;;;7.59;nan
74163;BME280;62515;52.758;5.076;2024-03-07T07:05:35;102740.41;;;8.26;nan
74163;BME280;62515;52.758;5.076;2024-03-07T07:08:04;102752.09;;;7.93;nan
74163;BME280;62515;52.758;5.076;2024-03-07T07:10:32;102739.75;;;8.19;nan
74163;BME280;62515;52.758;5.076;2024-03-07T07:13:00;102750.75;;;8.07;nan
74163;BME280;62515;52.758;5.076;2024-03-07T07:33:08;102752.34;;;8.42;nan
74163;BME280;62515;52.758;5.076;2024-03-07T07:35:36;102751.81;;;7.72;nan
74163;BME280;62515;52.758;5.076;2024-03-07T07:38:03;102754.03;;;8.15;nan
74163;BME280;62515;52.758;5.076;2024-03-07T07:40:31;102751.59;;;8.08;nan
74163;BME280;62515;52.758;5.076;2024-03-07T07:42:59;102734.28;;;8.78;nan
74163;BME280;62515;52.758;5.076;2024-03-07T07:45:32;102740.06;;;8.90;nan
74163;BME280;62515;52.758;5.076;2024-03-07T07:48:00;102739.25;;;8.88;nan
74163;BME280;62515;52.758;5.076;2024-03-07T07:50:29;102726.91;;;9.12;nan
74163;BME280;62515;52.758;5.076;2024-03-07T07:52:57;102739.56;;;8.79;nan
74163;BME280;62515;52.758;5.076;2024-03-07T07:55:26;102726.50;;;8.98;nan
74163;BME280;62515;52.758;5.076;2024-03-07T07:57:55;102739.03;;;8.68;nan
74163;BME280;62515;52.758;5.076;2024-03-07T08:00:25;102736.50;;;9.16;nan
74163;BME280;62515;52.758;5.076;2024-03-07T08:02:54;102738.34;;;8.63;nan
74163;BME280;62515;52.758;5.076;2024-03-07T08:05:25;102737.38;;;9.17;nan
74163;BME280;62515;52.758;5.076;2024-03-07T08:07:55;102740.69;;;8.72;nan
74163;BME280;62515;52.758;5.076;2024-03-07T08:10:24;102741.38;;;8.23;nan
74163;BME280;62515;52.758;5.076;2024-03-07T08:12:52;102742.97;;;8.01;nan
74163;BME280;62515;52.758;5.076;2024-03-07T08:15:20;102742.50;;;7.87;nan
74163;BME280;62515;52.758;5.076;2024-03-07T08:17:48;102736.09;;;8.77;nan
74163;BME280;62515;52.758;5.076;2024-03-07T08:20:17;102725.41;;;8.79;nan
74163;BME280;62515;52.758;5.076;2024-03-07T08:22:50;102728.28;;;8.47;nan
74163;BME280;62515;52.758;5.076;2024-03-07T08:25:20;102738.56;;;8.57;nan
74163;BME280;62515;52.758;5.076;2024-03-07T08:27:49;102748.19;;;8.60;nan
74163;BME280;62515;52.758;5.076;2024-03-07T08:30:17;102744.97;;;8.22;nan
74163;BME280;62515;52.758;5.076;2024-03-07T08:32:46;102729.38;;;8.41;nan
74163;BME280;62515;52.758;5.076;2024-03-07T08:35:15;102745.25;;;9.20;nan
74163;BME280;62515;52.758;5.076;2024-03-07T08:37:44;102733.03;;;9.39;nan
74163;BME280;62515;52.758;5.076;2024-03-07T08:40:12;102720.94;;;9.06;nan
74163;BME280;62515;52.758;5.076;2024-03-07T08:42:41;102734.72;;;9.40;nan
74163;BME280;62515;52.758;5.076;2024-03-07T08:45:10;102703.94;;;8.60;nan
74163;BME280;62515;52.758;5.076;2024-03-07T08:47:38;102722.84;;;8.77;nan
74163;BME280;62515;52.758;5.076;2024-03-07T08:50:28;102715.53;;;9.09;nan
74163;BME280;62515;52.758;5.076;2024-03-07T08:52:56;102729.81;;;8.80;nan
74163;BME280;62515;52.758;5.076;2024-03-07T08:55:24;102730.38;;;8.63;nan
74163;BME280;62515;52.758;5.076;2024-03-07T08:57:54;102743.78;;;8.59;nan
74163;BME280;62515;52.758;5.076;2024-03-07T09:00:22;102742.00;;;8.85;nan
74163;BME280;62515;52.758;5.076;2024-03-07T09:02:51;102721.09;;;8.76;nan
74163;BME280;62515;52.758;5.076;2024-03-07T09:05:19;102733.59;;;8.73;nan
74163;BME280;62515;52.758;5.076;2024-03-07T09:07:47;102719.72;;;8.38;nan
74163;BME280;62515;52.758;5.076;2024-03-07T09:10:15;102745.69;;;8.29;nan
74163;BME280;62515;52.758;5.076;2024-03-07T09:12:43;102732.81;;;8.43;nan
74163;BME280;62515;52.758;5.076;2024-03-07T09:15:12;102734.94;;;8.60;nan
74163;BME280;62515;52.758;5.076;2024-03-07T09:17:40;102718.72;;;8.93;nan
74163;BME280;62515;52.758;5.076;2024-03-07T09:20:09;102730.69;;;8.80;nan
74163;BME280;62515;52.758;5.076;2024-03-07T09:22:39;102734.81;;;8.36;nan
74163;BME280;62515;52.758;5.076;2024-03-07T09:25:08;102730.63;;;8.82;nan
74163;BME280;62515;52.758;5.076;2024-03-07T09:27:40;102728.97;;;8.78;nan
74163;BME280;62515;52.758;5.076;2024-03-07T09:30:20;102696.97;;;8.58;nan
74163;BME280;62515;52.758;5.076;2024-03-07T09:32:48;102728.66;;;8.07;nan
74163;BME280;62515;52.758;5.076;2024-03-07T09:35:17;102725.22;;;8.85;nan
74163;BME280;62515;52.758;5.076;2024-03-07T09:37:44;102732.47;;;9.05;nan
74163;BME280;62515;52.758;5.076;2024-03-07T09:40:12;102713.91;;;8.54;nan
74163;BME280;62515;52.758;5.076;2024-03-07T09:42:44;102714.72;;;9.07;nan
74163;BME280;62515;52.758;5.076;2024-03-07T09:45:16;102719.53;;;9.43;nan
74163;BME280;62515;52.758;5.076;2024-03-07T09:47:48;102711.47;;;8.99;nan
74163;BME280;62515;52.758;5.076;2024-03-07T09:50:18;102712.91;;;9.32;nan
74163;BME280;62515;52.758;5.076;2024-03-07T09:52:47;102714.91;;;9.25;nan
74163;BME280;62515;52.758;5.076;2024-03-07T09:55:16;102685.75;;;9.70;nan
74163;BME280;62515;52.758;5.076;2024-03-07T09:57:46;102707.13;;;9.44;nan
74163;BME280;62515;52.758;5.076;2024-03-07T10:00:18;102713.63;;;10.05;nan
74163;BME280;62515;52.758;5.076;2024-03-07T10:02:54;102704.25;;;10.18;nan
74163;BME280;62515;52.758;5.076;2024-03-07T10:05:23;102681.34;;;10.36;nan
74163;BME280;62515;52.758;5.076;2024-03-07T10:07:57;102703.00;;;10.48;nan
74163;BME280;62515;52.758;5.076;2024-03-07T10:14:18;102696.47;;;10.14;nan
74163;BME280;62515;52.758;5.076;2024-03-07T10:16:45;102678.13;;;10.06;nan
74163;BME280;62515;52.758;5.076;2024-03-07T10:19:15;102698.41;;;10.09;nan
74163;BME280;62515;52.758;5.076;2024-03-07T10:21:43;102686.81;;;10.33;nan
74163;BME280;62515;52.758;5.076;2024-03-07T10:24:10;102702.66;;;10.14;nan
74163;BME280;62515;52.758;5.076;2024-03-07T10:26:38;102697.03;;;9.98;nan
74163;BME280;62515;52.758;5.076;2024-03-07T10:29:18;102682.56;;;10.49;nan
74163;BME280;62515;52.758;5.076;2024-03-07T10:31:46;102689.94;;;10.84;nan
74163;BME280;62515;52.758;5.076;2024-03-07T10:34:25;102677.03;;;10.54;nan
74163;BME280;62515;52.758;5.076;2024-03-07T10:37:00;102686.53;;;11.01;nan
74163;BME280;62515;52.758;5.076;2024-03-07T10:39:29;102668.63;;;11.05;nan
74163;BME280;62515;52.758;5.076;2024-03-07T10:42:06;102654.59;;;11.20;nan
74163;BME280;62515;52.758;5.076;2024-03-07T10:45:04;102654.81;;;11.73;nan
74163;BME280;62515;52.758;5.076;2024-03-07T10:47:37;102637.78;;;11.57;nan
74163;BME280;62515;52.758;5.076;2024-03-07T10:50:14;102672.06;;;11.45;nan
74163;BME280;62515;52.758;5.076;2024-03-07T10:52:57;102675.00;;;11.00;nan
74163;BME280;62515;52.758;5.076;2024-03-07T10:55:34;102672.88;;;10.68;nan
74163;BME280;62515;52.758;5.076;2024-03-07T10:58:02;102667.69;;;10.85;nan
74163;BME280;62515;52.758;5.076;2024-03-07T11:42:22;102608.22;;;10.85;nan
74163;BME280;62515;52.758;5.076;2024-03-07T11:44:53;102633.56;;;11.51;nan
74163;BME280;62515;52.758;5.076;2024-03-07T11:47:21;102597.88;;;10.59;nan
74163;BME280;62515;52.758;5.076;2024-03-07T11:49:51;102576.88;;;10.31;nan
74163;BME280;62515;52.758;5.076;2024-03-07T11:52:19;102617.75;;;10.30;nan
74163;BME280;62515;52.758;5.076;2024-03-07T11:54:48;102623.47;;;10.21;nan
74163;BME280;62515;52.758;5.076;2024-03-07T11:57:16;102619.94;;;10.61;nan
74163;BME280;62515;52.758;5.076;2024-03-07T11:59:47;102621.81;;;10.38;nan
74163;BME280;62515;52.758;5.076;2024-03-07T12:02:15;102618.53;;;10.32;nan
74163;BME280;62515;52.758;5.076;2024-03-07T12:04:44;102622.00;;;10.94;nan
74163;BME280;62515;52.758;5.076;2024-03-07T12:07:12;102612.69;;;10.44;nan
74163;BME280;62515;52.758;5.076;2024-03-07T12:09:40;102611.91;;;10.82;nan
74163;BME280;62515;52.758;5.076;2024-03-07T12:12:08;102609.38;;;10.79;nan
74163;BME280;62515;52.758;5.076;2024-03-07T12:14:36;102612.38;;;11.11;nan
74163;BME280;62515;52.758;5.076;2024-03-07T12:17:05;102605.84;;;11.18;nan
74163;BME280;62515;52.758;5.076;2024-03-07T12:19:43;102614.16;;;10.91;nan
74163;BME280;62515;52.758;5.076;2024-03-07T12:22:21;102600.06;;;10.69;nan
74163;BME280;62515;52.758;5.076;2024-03-07T12:25:00;102596.97;;;10.98;nan
74163;BME280;62515;52.758;5.076;2024-03-07T12:27:27;102593.31;;;10.40;nan
74163;BME280;62515;52.758;5.076;2024-03-07T12:29:57;102591.41;;;10.24;nan
74163;BME280;62515;52.758;5.076;2024-03-07T12:32:25;102592.53;;;9.75;nan
74163;BME280;62515;52.758;5.076;2024-03-07T12:34:55;102581.50;;;9.84;nan
74163;BME280;62515;52.758;5.076;2024-03-07T12:37:22;102583.84;;;9.70;nan
74163;BME280;62515;52.758;5.076;2024-03-07T12:39:49;102545.47;;;9.55;nan
74163;BME280;62515;52.758;5.076;2024-03-07T12:42:16;102576.28;;;10.03;nan
74163;BME280;62515;52.758;5.076;2024-03-07T12:44:43;102566.91;;;9.51;nan
74163;BME280;62515;52.758;5.076;2024-03-07T12:47:10;102569.06;;;10.06;nan
74163;BME280;62515;52.758;5.076;2024-03-07T12:49:38;102562.22;;;9.57;nan
74163;BME280;62515;52.758;5.076;2024-03-07T12:52:05;102558.53;;;9.61;nan
74163;BME280;62515;52.758;5.076;2024-03-07T12:54:32;102550.28;;;9.67;nan
74163;BME280;62515;52.758;5.076;2024-03-07T12:56:59;102556.09;;;9.77;nan
74163;BME280;62515;52.758;5.076;2024-03-07T12:59:26;102549.56;;;9.64;nan
74163;BME280;62515;52.758;5.076;2024-03-07T13:01:53;102553.88;;;9.44;nan
74163;BME280;62515;52.758;5.076;2024-03-07T13:04:20;102550.09;;;9.50;nan
74163;BME280;62515;52.758;5.076;2024-03-07T13:06:48;102547.88;;;9.61;nan
74163;BME280;62515;52.758;5.076;2024-03-07T13:09:15;102551.72;;;9.32;nan
74163;BME280;62515;52.758;5.076;2024-03-07T13:11:41;102549.41;;;9.67;nan
74163;BME280;62515;52.758;5.076;2024-03-07T13:14:08;102541.88;;;9.56;nan
74163;BME280;62515;52.758;5.076;2024-03-07T13:16:35;102546.03;;;9.85;nan
74163;BME280;62515;52.758;5.076;2024-03-07T13:19:02;102540.59;;;9.88;nan
74163;BME280;62515;52.758;5.076;2024-03-07T13:21:29;102545.56;;;9.95;nan
74163;BME280;62515;52.758;5.076;2024-03-07T13:23:57;102533.69;;;10.04;nan
74163;BME280;62515;52.758;5.076;2024-03-07T13:26:24;102522.22;;;10.02;nan
74163;BME280;62515;52.758;5.076;2024-03-07T13:28:51;102533.25;;;9.93;nan
74163;BME280;62515;52.758;5.076;2024-03-07T13:31:19;102516.66;;;9.66;nan
74163;BME280;62515;52.758;5.076;2024-03-07T13:33:46;102509.19;;;9.54;nan
74163;BME280;62515;52.758;5.076;2024-03-07T13:36:13;102512.28;;;9.65;nan
74163;BME280;62515;52.758;5.076;2024-03-07T13:38:40;102519.16;;;9.49;nan
74163;BME280;62515;52.758;5.076;2024-03-07T13:41:08;102517.47;;;9.25;nan
74163;BME280;62515;52.758;5.076;2024-03-07T13:44:10;102523.06;;;9.82;nan
74163;BME280;62515;52.758;5.076;2024-03-07T13:47:00;102448.00;;;9.34;nan
74163;BME280;62515;52.758;5.076;2024-03-07T13:49:27;102471.00;;;9.35;nan
74163;BME280;62515;52.758;5.076;2024-03-07T13:51:54;102445.16;;;8.95;nan
74163;BME280;62515;52.758;5.076;2024-03-07T13:54:21;102468.06;;;9.42;nan
74163;BME280;62515;52.758;5.076;2024-03-07T13:56:54;102489.25;;;8.77;nan
74163;BME280;62515;52.758;5.076;2024-03-07T14:02:41;102482.38;;;9.17;nan
74163;BME280;62515;52.758;5.076;2024-03-07T14:08:28;102492.84;;;9.63;nan
74163;BME280;62515;52.758;5.076;2024-03-07T14:11:21;102489.59;;;9.57;nan
74163;BME280;62515;52.758;5.076;2024-03-07T14:14:09;102465.69;;;9.35;nan
74163;BME280;62515;52.758;5.076;2024-03-07T14:17:30;102448.59;;;9.42;nan
74163;BME280;62515;52.758;5.076;2024-03-07T14:20:35;102478.56;;;9.66;nan
74163;BME280;62515;52.758;5.076;2024-03-07T14:23:18;102471.84;;;9.57;nan
74163;BME280;62515;52.758;5.076;2024-03-07T14:25:59;102461.00;;;9.41;nan
74163;BME280;62515;52.758;5.076;2024-03-07T14:28:50;102458.34;;;9.41;nan
74163;BME280;62515;52.758;5.076;2024-03-07T14:31:21;102466.78;;;9.51;nan
74163;BME280;62515;52.758;5.076;2024-03-07T14:34:04;102463.25;;;9.92;nan
74163;BME280;62515;52.758;5.076;2024-03-07T14:36:37;102449.72;;;8.91;nan
74163;BME280;62515;52.758;5.076;2024-03-07T14:39:05;102447.50;;;8.81;nan
74163;BME280;62515;52.758;5.076;2024-03-07T14:41:47;102452.59;;;9.09;nan
74163;BME280;62515;52.758;5.076;2024-03-07T14:44:16;102449.94;;;9.09;nan
74163;BME280;62515;52.758;5.076;2024-03-07T14:46:48;102445.19;;;9.17;nan